createdAt,value
2017-07-05T00:00:02.688Z,16.8
2017-07-05T00:00:22.950Z,16.8
2017-07-05T00:00:43.216Z,16.8
2017-07-05T00:01:03.522Z,16.8
2017-07-05T00:01:23.802Z,16.7
2017-07-05T00:01:44.068Z,16.8
2017-07-05T00:02:04.380Z,16.7
2017-07-05T00:02:24.773Z,16.7
2017-07-05T00:02:45.723Z,16.7
2017-07-05T00:03:06.065Z,16.7
2017-07-05T00:03:26.027Z,16.8
2017-07-05T00:03:46.326Z,16.7
2017-07-05T00:04:07.849Z,16.7
2017-07-05T00:04:28.180Z,16.6
2017-07-05T00:04:49.295Z,16.6
2017-07-05T00:05:10.351Z,16.6
2017-07-05T00:05:30.726Z,16.6
2017-07-05T00:05:51.321Z,16.6
2017-07-05T00:06:11.589Z,16.5
2017-07-05T00:06:31.910Z,16.6
2017-07-05T00:06:52.170Z,16.5
2017-07-05T00:07:12.479Z,16.5
2017-07-05T00:07:32.821Z,16.5
2017-07-05T00:07:53.788Z,16.5
2017-07-05T00:08:14.836Z,16.5
2017-07-05T00:08:35.144Z,16.5
2017-07-05T00:08:55.417Z,16.6
2017-07-05T00:09:15.689Z,16.5
2017-07-05T00:09:35.959Z,16.5
2017-07-05T00:09:56.804Z,16.6
2017-07-05T00:10:17.066Z,16.5
2017-07-05T00:10:37.062Z,16.5
2017-07-05T00:10:57.895Z,16.5
2017-07-05T00:11:18.158Z,16.5
2017-07-05T00:11:38.445Z,16.5
2017-07-05T00:11:58.701Z,16.5
2017-07-05T00:12:18.957Z,16.5
2017-07-05T00:12:39.239Z,16.5
2017-07-05T00:12:59.539Z,16.5
2017-07-05T00:13:19.819Z,16.5
2017-07-05T00:13:40.084Z,16.5
2017-07-05T00:14:01.347Z,16.6
2017-07-05T00:14:21.657Z,16.5
2017-07-05T00:14:42.921Z,16.6
2017-07-05T00:15:03.268Z,16.6
2017-07-05T00:15:23.536Z,16.5
2017-07-05T00:15:43.851Z,16.5
2017-07-05T00:16:05.356Z,16.5
2017-07-05T00:16:25.707Z,16.5
2017-07-05T00:16:46.090Z,16.5
2017-07-05T00:17:06.362Z,16.5
2017-07-05T00:17:26.645Z,16.6
2017-07-05T00:17:46.904Z,16.5
2017-07-05T00:18:07.738Z,16.5
2017-07-05T00:18:28.042Z,16.6
2017-07-05T00:18:48.898Z,16.5
2017-07-05T00:19:10.381Z,16.5
2017-07-05T00:19:30.651Z,16.5
2017-07-05T00:19:50.921Z,16.5
2017-07-05T00:20:11.891Z,16.5
2017-07-05T00:20:32.194Z,16.4
2017-07-05T00:20:53.842Z,16.5
2017-07-05T00:21:14.910Z,16.4
2017-07-05T00:21:35.216Z,16.4
2017-07-05T00:21:55.489Z,16.4
2017-07-05T00:22:16.326Z,16.4
2017-07-05T00:22:37.219Z,16.4
2017-07-05T00:22:57.518Z,16.4
2017-07-05T00:23:18.362Z,16.4
2017-07-05T00:23:38.689Z,16.4
2017-07-05T00:23:59.015Z,16.4
2017-07-05T00:24:19.294Z,16.4
2017-07-05T00:24:39.603Z,16.4
2017-07-05T00:25:00.762Z,16.4
2017-07-05T00:25:21.023Z,16.3
2017-07-05T00:25:42.317Z,16.4
2017-07-05T00:26:02.581Z,16.3
2017-07-05T00:26:23.405Z,16.4
2017-07-05T00:26:43.672Z,16.3
2017-07-05T00:27:03.933Z,16.3
2017-07-05T00:27:24.207Z,16.3
2017-07-05T00:27:44.500Z,16.3
2017-07-05T00:28:04.881Z,16.3
2017-07-05T00:28:25.249Z,16.3
2017-07-05T00:28:45.514Z,16.3
2017-07-05T00:29:05.785Z,16.3
2017-07-05T00:29:26.059Z,16.3
2017-07-05T00:29:47.245Z,16.3
2017-07-05T00:30:07.506Z,16.3
2017-07-05T00:30:28.407Z,16.3
2017-07-05T00:30:48.739Z,16.3
2017-07-05T00:31:09.104Z,16.3
2017-07-05T00:31:29.359Z,16.3
2017-07-05T00:31:49.672Z,16.3
2017-07-05T00:32:09.996Z,16.3
2017-07-05T00:32:30.286Z,16.3
2017-07-05T00:32:50.546Z,16.4
2017-07-05T00:33:10.804Z,16.3
2017-07-05T00:33:31.190Z,16.3
2017-07-05T00:33:51.493Z,16.4
2017-07-05T00:34:11.763Z,16.3
2017-07-05T00:34:32.021Z,16.3
2017-07-05T00:34:52.290Z,16.3
2017-07-05T00:35:13.371Z,16.4
2017-07-05T00:35:33.697Z,16.3
2017-07-05T00:35:54.884Z,16.4
2017-07-05T00:36:15.837Z,16.4
2017-07-05T00:36:36.090Z,16.3
2017-07-05T00:36:56.368Z,16.3
2017-07-05T00:37:16.632Z,16.3
2017-07-05T00:37:36.923Z,16.4
2017-07-05T00:37:57.228Z,16.4
2017-07-05T00:38:18.226Z,16.4
2017-07-05T00:38:38.546Z,16.4
2017-07-05T00:38:59.372Z,16.3
2017-07-05T00:39:20.381Z,16.4
2017-07-05T00:39:40.650Z,16.4
2017-07-05T00:40:00.915Z,16.4
2017-07-05T00:40:21.222Z,16.3
2017-07-05T00:40:42.307Z,16.4
2017-07-05T00:41:02.566Z,16.4
2017-07-05T00:41:23.907Z,16.4
2017-07-05T00:41:44.761Z,16.4
2017-07-05T00:42:05.037Z,16.4
2017-07-05T00:42:26.290Z,16.4
2017-07-05T00:42:46.595Z,16.4
2017-07-05T00:43:06.870Z,16.3
2017-07-05T00:43:27.753Z,16.3
2017-07-05T00:43:48.757Z,16.3
2017-07-05T00:44:09.023Z,16.3
2017-07-05T00:44:30.909Z,16.3
2017-07-05T00:44:51.187Z,16.2
2017-07-05T00:45:11.473Z,16.3
2017-07-05T00:45:31.764Z,16.2
2017-07-05T00:45:52.065Z,16.2
2017-07-05T00:46:12.343Z,16.2
2017-07-05T00:46:32.668Z,16.2
2017-07-05T00:46:53.908Z,16.1
2017-07-05T00:47:14.958Z,16.1
2017-07-05T00:47:35.225Z,16.1
2017-07-05T00:47:55.537Z,16.1
2017-07-05T00:48:15.830Z,16.1
2017-07-05T00:48:36.191Z,16
2017-07-05T00:48:56.488Z,16
2017-07-05T00:49:17.773Z,16
2017-07-05T00:49:38.853Z,16
2017-07-05T00:49:59.142Z,16
2017-07-05T00:50:19.460Z,16.1
2017-07-05T00:50:39.784Z,16
2017-07-05T00:50:59.767Z,16
2017-07-05T00:51:20.051Z,16
2017-07-05T00:51:40.328Z,16
2017-07-05T00:52:00.634Z,15.9
2017-07-05T00:52:20.904Z,16
2017-07-05T00:52:41.201Z,15.9
2017-07-05T00:53:02.354Z,15.9
2017-07-05T00:53:22.613Z,15.9
2017-07-05T00:53:42.891Z,15.8
2017-07-05T00:54:03.161Z,15.8
2017-07-05T00:54:23.490Z,15.9
2017-07-05T00:54:43.789Z,15.8
2017-07-05T00:55:04.052Z,15.9
2017-07-05T00:55:24.358Z,15.9
2017-07-05T00:55:44.633Z,15.9
2017-07-05T00:56:04.917Z,15.9
2017-07-05T00:56:25.185Z,15.8
2017-07-05T00:56:45.505Z,15.9
2017-07-05T00:57:05.776Z,15.9
2017-07-05T00:57:26.107Z,15.8
2017-07-05T00:57:46.423Z,15.8
2017-07-05T00:58:06.767Z,15.8
2017-07-05T00:58:27.083Z,15.8
2017-07-05T00:58:47.410Z,15.7
2017-07-05T00:59:08.419Z,15.7
2017-07-05T00:59:29.408Z,15.8
2017-07-05T00:59:49.732Z,15.8
2017-07-05T01:00:10.919Z,15.7
2017-07-05T01:00:31.187Z,15.8
2017-07-05T01:00:51.553Z,15.8
2017-07-05T01:01:11.862Z,15.8
2017-07-05T01:01:32.146Z,15.8
2017-07-05T01:01:52.440Z,15.8
2017-07-05T01:02:12.810Z,15.8
2017-07-05T01:02:33.092Z,15.8
2017-07-05T01:02:53.409Z,15.9
2017-07-05T01:03:13.685Z,15.9
2017-07-05T01:03:33.978Z,15.9
2017-07-05T01:03:54.245Z,15.9
2017-07-05T01:04:14.533Z,16
2017-07-05T01:04:34.847Z,15.9
2017-07-05T01:04:55.178Z,15.9
2017-07-05T01:05:15.442Z,15.9
2017-07-05T01:05:36.412Z,16
2017-07-05T01:05:56.691Z,15.9
2017-07-05T01:06:16.962Z,15.9
2017-07-05T01:06:37.232Z,15.9
2017-07-05T01:06:57.571Z,15.8
2017-07-05T01:07:17.838Z,15.9
2017-07-05T01:07:38.127Z,15.9
2017-07-05T01:07:58.404Z,15.9
2017-07-05T01:08:18.687Z,15.9
2017-07-05T01:08:38.966Z,15.8
2017-07-05T01:08:59.237Z,15.8
2017-07-05T01:09:19.549Z,15.8
2017-07-05T01:09:39.830Z,15.9
2017-07-05T01:10:00.137Z,15.8
2017-07-05T01:10:21.283Z,15.8
2017-07-05T01:10:42.364Z,15.8
2017-07-05T01:11:02.694Z,15.9
2017-07-05T01:11:23.917Z,15.9
2017-07-05T01:11:44.941Z,15.8
2017-07-05T01:12:05.221Z,15.9
2017-07-05T01:12:25.578Z,15.9
2017-07-05T01:12:45.843Z,15.9
2017-07-05T01:13:06.107Z,15.9
2017-07-05T01:13:26.895Z,15.9
2017-07-05T01:13:47.926Z,15.9
2017-07-05T01:14:08.897Z,15.9
2017-07-05T01:14:29.226Z,15.9
2017-07-05T01:14:49.558Z,15.9
2017-07-05T01:15:09.806Z,15.9
2017-07-05T01:15:31.798Z,15.9
2017-07-05T01:15:52.178Z,15.9
2017-07-05T01:16:12.450Z,15.9
2017-07-05T01:16:33.331Z,15.9
2017-07-05T01:16:53.337Z,16
2017-07-05T01:17:13.653Z,16
2017-07-05T01:17:33.976Z,16
2017-07-05T01:17:54.923Z,15.9
2017-07-05T01:18:15.212Z,16
2017-07-05T01:18:35.203Z,16
2017-07-05T01:18:55.513Z,16
2017-07-05T01:19:15.839Z,16
2017-07-05T01:19:36.900Z,15.9
2017-07-05T01:19:57.221Z,16
2017-07-05T01:20:17.569Z,15.9
2017-07-05T01:20:38.812Z,16
2017-07-05T01:20:58.805Z,16
2017-07-05T01:21:19.170Z,15.9
2017-07-05T01:21:39.459Z,16.1
2017-07-05T01:21:59.812Z,16
2017-07-05T01:22:20.139Z,16
2017-07-05T01:22:40.408Z,16
2017-07-05T01:23:00.713Z,16
2017-07-05T01:23:20.771Z,16
2017-07-05T01:23:41.884Z,16
2017-07-05T01:24:02.154Z,16
2017-07-05T01:24:22.437Z,16
2017-07-05T01:24:42.710Z,15.9
2017-07-05T01:25:03.020Z,16
2017-07-05T01:25:23.949Z,16
2017-07-05T01:25:44.220Z,16.1
2017-07-05T01:26:04.515Z,16
2017-07-05T01:26:26.435Z,16
2017-07-05T01:26:46.725Z,16
2017-07-05T01:27:07.074Z,16
2017-07-05T01:27:27.340Z,16
2017-07-05T01:27:47.663Z,16
2017-07-05T01:28:09.392Z,16
2017-07-05T01:28:29.657Z,16
2017-07-05T01:28:49.958Z,16
2017-07-05T01:29:10.284Z,15.9
2017-07-05T01:29:30.591Z,16
2017-07-05T01:29:50.864Z,15.9
2017-07-05T01:30:11.145Z,15.9
2017-07-05T01:30:31.430Z,15.9
2017-07-05T01:30:51.703Z,15.9
2017-07-05T01:31:12.018Z,16
2017-07-05T01:31:32.368Z,15.9
2017-07-05T01:31:52.691Z,15.9
2017-07-05T01:32:13.261Z,15.9
2017-07-05T01:32:34.333Z,15.9
2017-07-05T01:32:54.658Z,15.9
2017-07-05T01:33:15.067Z,15.9
2017-07-05T01:33:37.454Z,15.9
2017-07-05T01:33:58.952Z,15.9
2017-07-05T01:34:19.236Z,16
2017-07-05T01:34:39.522Z,15.9
2017-07-05T01:35:01.447Z,15.9
2017-07-05T01:35:21.732Z,15.9
2017-07-05T01:35:42.855Z,15.9
2017-07-05T01:36:03.842Z,15.9
2017-07-05T01:36:24.412Z,15.9
2017-07-05T01:36:45.350Z,15.9
2017-07-05T01:37:06.083Z,15.9
2017-07-05T01:37:26.356Z,15.9
2017-07-05T01:37:47.432Z,15.9
2017-07-05T01:38:07.810Z,15.9
2017-07-05T01:38:28.117Z,16
2017-07-05T01:38:48.950Z,16.1
2017-07-05T01:39:09.260Z,16
2017-07-05T01:39:29.532Z,16
2017-07-05T01:39:49.802Z,16
2017-07-05T01:40:10.798Z,15.9
2017-07-05T01:40:31.088Z,16
2017-07-05T01:40:51.344Z,16
2017-07-05T01:41:12.465Z,16
2017-07-05T01:41:32.791Z,16.1
2017-07-05T01:41:53.158Z,16.1
2017-07-05T01:42:13.420Z,16
2017-07-05T01:42:34.419Z,16
2017-07-05T01:42:54.745Z,16
2017-07-05T01:43:15.057Z,16.1
2017-07-05T01:43:35.388Z,16.1
2017-07-05T01:43:56.347Z,16.1
2017-07-05T01:44:17.271Z,16.1
2017-07-05T01:44:38.460Z,16.1
2017-07-05T01:44:58.763Z,16.1
2017-07-05T01:45:20.450Z,16.1
2017-07-05T01:45:41.346Z,16.1
2017-07-05T01:46:02.490Z,16.1
2017-07-05T01:46:23.403Z,16.1
2017-07-05T01:46:43.661Z,16.2
2017-07-05T01:47:06.420Z,16.1
2017-07-05T01:47:27.323Z,16.1
2017-07-05T01:47:47.621Z,16.1
2017-07-05T01:48:08.917Z,16.2
2017-07-05T01:48:29.198Z,16.1
2017-07-05T01:48:49.526Z,16.1
2017-07-05T01:49:09.799Z,16.1
2017-07-05T01:49:30.946Z,16
2017-07-05T01:49:51.915Z,16
2017-07-05T01:50:12.251Z,16.1
2017-07-05T01:50:33.888Z,16
2017-07-05T01:50:54.198Z,16
2017-07-05T01:51:15.444Z,16.1
2017-07-05T01:51:36.947Z,16
2017-07-05T01:51:57.223Z,16.1
2017-07-05T01:52:17.499Z,16.1
2017-07-05T01:52:38.327Z,16.1
2017-07-05T01:53:00.452Z,16.1
2017-07-05T01:53:21.368Z,16.1
2017-07-05T01:53:41.710Z,16.1
2017-07-05T01:54:02.961Z,16.1
2017-07-05T01:54:23.243Z,16.1
2017-07-05T01:54:44.449Z,16.2
2017-07-05T01:55:04.733Z,16.1
2017-07-05T01:55:25.047Z,16.2
2017-07-05T01:55:46.350Z,16.2
2017-07-05T01:56:06.320Z,16.1
2017-07-05T01:56:27.985Z,16.2
2017-07-05T01:56:48.864Z,16.2
2017-07-05T01:57:09.142Z,16.2
2017-07-05T01:57:30.971Z,16.2
2017-07-05T01:57:51.289Z,16.3
2017-07-05T01:58:11.567Z,16.2
2017-07-05T01:58:31.838Z,16.2
2017-07-05T01:58:52.192Z,16.2
2017-07-05T01:59:12.513Z,16.2
2017-07-05T01:59:32.782Z,16.2
2017-07-05T01:59:53.092Z,16.2
2017-07-05T02:00:13.965Z,16.2
2017-07-05T02:00:34.231Z,16.2
2017-07-05T02:00:54.509Z,16.1
2017-07-05T02:01:14.773Z,16
2017-07-05T02:01:34.779Z,16
2017-07-05T02:01:55.057Z,16.1
2017-07-05T02:02:15.377Z,16
2017-07-05T02:02:35.672Z,16.1
2017-07-05T02:02:55.943Z,16.1
2017-07-05T02:03:16.224Z,16.1
2017-07-05T02:03:38.325Z,16
2017-07-05T02:03:59.408Z,16.1
2017-07-05T02:04:20.377Z,16.1
2017-07-05T02:04:41.350Z,16
2017-07-05T02:05:01.713Z,16
2017-07-05T02:05:22.027Z,16
2017-07-05T02:05:42.043Z,16
2017-07-05T02:06:02.337Z,16
2017-07-05T02:06:22.315Z,16
2017-07-05T02:06:42.618Z,16
2017-07-05T02:07:02.892Z,16
2017-07-05T02:07:23.221Z,16
2017-07-05T02:07:44.002Z,16.1
2017-07-05T02:08:04.280Z,16
2017-07-05T02:08:24.573Z,16
2017-07-05T02:08:44.572Z,16
2017-07-05T02:09:04.933Z,15.9
2017-07-05T02:09:25.198Z,16
2017-07-05T02:09:45.466Z,16
2017-07-05T02:10:05.498Z,15.9
2017-07-05T02:10:25.828Z,16
2017-07-05T02:10:46.104Z,16
2017-07-05T02:11:06.426Z,15.9
2017-07-05T02:11:26.652Z,16
2017-07-05T02:11:46.930Z,16
2017-07-05T02:12:07.201Z,16
2017-07-05T02:12:28.435Z,16.1
2017-07-05T02:12:49.437Z,16
2017-07-05T02:13:09.770Z,16
2017-07-05T02:13:31.424Z,16
2017-07-05T02:13:52.477Z,16.1
2017-07-05T02:14:13.468Z,16
2017-07-05T02:14:33.769Z,16
2017-07-05T02:14:54.041Z,16
2017-07-05T02:15:15.327Z,15.9
2017-07-05T02:15:35.629Z,15.9
2017-07-05T02:15:55.952Z,16
2017-07-05T02:16:16.221Z,15.9
2017-07-05T02:16:36.510Z,15.9
2017-07-05T02:16:57.810Z,16
2017-07-05T02:17:18.168Z,16
2017-07-05T02:17:38.460Z,16
2017-07-05T02:17:58.821Z,15.9
2017-07-05T02:18:19.107Z,16
2017-07-05T02:18:39.400Z,15.9
2017-07-05T02:19:00.461Z,16
2017-07-05T02:19:20.492Z,16
2017-07-05T02:19:41.973Z,16
2017-07-05T02:20:02.247Z,16
2017-07-05T02:20:22.521Z,16.1
2017-07-05T02:20:42.793Z,16
2017-07-05T02:21:03.064Z,16.1
2017-07-05T02:21:23.383Z,16
2017-07-05T02:21:43.650Z,16
2017-07-05T02:22:03.979Z,16
2017-07-05T02:22:24.964Z,16.1
2017-07-05T02:22:45.350Z,16.1
2017-07-05T02:23:05.710Z,16
2017-07-05T02:23:25.971Z,16.1
2017-07-05T02:23:46.302Z,16.1
2017-07-05T02:24:06.623Z,16.1
2017-07-05T02:24:26.976Z,16.1
2017-07-05T02:24:47.970Z,16.1
2017-07-05T02:25:08.246Z,16
2017-07-05T02:25:28.616Z,16.1
2017-07-05T02:25:48.967Z,16
2017-07-05T02:26:09.269Z,16
2017-07-05T02:26:29.579Z,16
2017-07-05T02:26:49.839Z,16
2017-07-05T02:27:10.127Z,16
2017-07-05T02:27:30.426Z,16
2017-07-05T02:27:50.721Z,16
2017-07-05T02:28:11.868Z,16
2017-07-05T02:28:32.972Z,16.1
2017-07-05T02:28:53.289Z,16
2017-07-05T02:29:14.389Z,15.9
2017-07-05T02:29:35.029Z,15.9
2017-07-05T02:29:56.345Z,15.9
2017-07-05T02:30:16.315Z,15.9
2017-07-05T02:30:36.634Z,15.9
2017-07-05T02:30:56.945Z,15.9
2017-07-05T02:31:17.242Z,15.9
2017-07-05T02:31:38.974Z,16
2017-07-05T02:31:59.261Z,15.9
2017-07-05T02:32:19.539Z,15.9
2017-07-05T02:32:40.419Z,15.9
2017-07-05T02:33:01.431Z,15.9
2017-07-05T02:33:21.690Z,15.9
2017-07-05T02:33:42.883Z,15.9
2017-07-05T02:34:03.220Z,15.9
2017-07-05T02:34:23.472Z,15.9
2017-07-05T02:34:43.742Z,16
2017-07-05T02:35:04.095Z,16
2017-07-05T02:35:24.416Z,16
2017-07-05T02:35:45.395Z,15.9
2017-07-05T02:36:05.727Z,15.9
2017-07-05T02:36:26.002Z,16
2017-07-05T02:36:46.279Z,16
2017-07-05T02:37:06.625Z,16.1
2017-07-05T02:37:26.905Z,16
2017-07-05T02:37:47.176Z,16
2017-07-05T02:38:07.564Z,16
2017-07-05T02:38:27.837Z,16
2017-07-05T02:38:48.144Z,16
2017-07-05T02:39:08.482Z,16
2017-07-05T02:39:28.767Z,15.9
2017-07-05T02:39:49.984Z,16
2017-07-05T02:40:10.256Z,16
2017-07-05T02:40:30.551Z,16
2017-07-05T02:40:50.872Z,16
2017-07-05T02:41:11.202Z,16
2017-07-05T02:41:31.498Z,15.9
2017-07-05T02:41:52.544Z,16
2017-07-05T02:42:13.989Z,16
2017-07-05T02:42:34.271Z,16
2017-07-05T02:42:54.273Z,16
2017-07-05T02:43:14.589Z,16
2017-07-05T02:43:34.628Z,16
2017-07-05T02:43:54.982Z,16
2017-07-05T02:44:15.253Z,16
2017-07-05T02:44:35.580Z,15.9
2017-07-05T02:44:56.392Z,15.9
2017-07-05T02:45:16.678Z,15.9
2017-07-05T02:45:36.994Z,15.9
2017-07-05T02:45:57.270Z,15.9
2017-07-05T02:46:17.549Z,15.9
2017-07-05T02:46:38.482Z,15.9
2017-07-05T02:47:00.486Z,15.9
2017-07-05T02:47:21.476Z,15.9
2017-07-05T02:47:41.762Z,15.9
2017-07-05T02:48:02.113Z,15.9
2017-07-05T02:48:22.427Z,15.8
2017-07-05T02:48:42.704Z,15.9
2017-07-05T02:49:02.985Z,15.9
2017-07-05T02:49:23.262Z,15.8
2017-07-05T02:49:43.549Z,15.9
2017-07-05T02:50:03.828Z,15.9
2017-07-05T02:50:24.101Z,15.9
2017-07-05T02:50:44.421Z,15.8
2017-07-05T02:51:04.735Z,15.8
2017-07-05T02:51:25.937Z,15.8
2017-07-05T02:51:46.270Z,15.8
2017-07-05T02:52:06.633Z,15.8
2017-07-05T02:52:26.916Z,15.8
2017-07-05T02:52:47.216Z,15.8
2017-07-05T02:53:07.535Z,15.8
2017-07-05T02:53:27.785Z,15.8
2017-07-05T02:53:48.118Z,15.8
2017-07-05T02:54:08.407Z,15.7
2017-07-05T02:54:29.497Z,15.8
2017-07-05T02:54:51.729Z,15.9
2017-07-05T02:55:12.006Z,15.8
2017-07-05T02:55:32.302Z,15.9
2017-07-05T02:55:52.576Z,15.8
2017-07-05T02:56:12.848Z,15.8
2017-07-05T02:56:33.165Z,15.9
2017-07-05T02:56:53.150Z,15.9
2017-07-05T02:57:13.483Z,15.8
2017-07-05T02:57:33.820Z,15.9
2017-07-05T02:57:55.506Z,15.9
2017-07-05T02:58:15.775Z,15.8
2017-07-05T02:58:36.059Z,15.8
2017-07-05T02:58:56.347Z,15.9
2017-07-05T02:59:16.667Z,15.9
2017-07-05T02:59:36.943Z,15.8
2017-07-05T02:59:57.218Z,15.9
2017-07-05T03:00:17.503Z,15.8
2017-07-05T03:00:37.762Z,15.9
2017-07-05T03:00:58.034Z,15.9
2017-07-05T03:01:18.298Z,15.9
2017-07-05T03:01:38.578Z,15.9
2017-07-05T03:01:58.899Z,15.8
2017-07-05T03:02:19.867Z,15.9
2017-07-05T03:02:40.177Z,15.9
2017-07-05T03:03:00.446Z,15.9
2017-07-05T03:03:20.761Z,15.8
2017-07-05T03:03:41.082Z,15.9
2017-07-05T03:04:01.437Z,15.9
2017-07-05T03:04:21.750Z,15.9
2017-07-05T03:04:42.024Z,15.9
2017-07-05T03:05:02.929Z,15.9
2017-07-05T03:05:23.211Z,15.9
2017-07-05T03:05:43.485Z,15.9
2017-07-05T03:06:05.023Z,15.9
2017-07-05T03:06:26.044Z,15.9
2017-07-05T03:06:46.313Z,16
2017-07-05T03:07:06.640Z,15.9
2017-07-05T03:07:26.958Z,15.9
2017-07-05T03:07:47.349Z,15.9
2017-07-05T03:08:07.675Z,15.9
2017-07-05T03:08:27.963Z,15.9
2017-07-05T03:08:48.250Z,16
2017-07-05T03:09:08.512Z,16
2017-07-05T03:09:32.009Z,15.9
2017-07-05T03:09:52.330Z,15.9
2017-07-05T03:10:12.684Z,15.9
2017-07-05T03:10:33.497Z,15.9
2017-07-05T03:10:53.778Z,15.9
2017-07-05T03:11:15.015Z,15.9
2017-07-05T03:11:35.291Z,15.9
2017-07-05T03:11:55.580Z,15.9
2017-07-05T03:12:16.507Z,15.8
2017-07-05T03:12:37.499Z,15.9
2017-07-05T03:12:57.503Z,15.8
2017-07-05T03:13:17.842Z,15.8
2017-07-05T03:13:38.166Z,15.8
2017-07-05T03:13:59.007Z,15.8
2017-07-05T03:14:19.323Z,15.7
2017-07-05T03:14:39.619Z,15.7
2017-07-05T03:14:59.891Z,15.8
2017-07-05T03:15:20.174Z,15.7
2017-07-05T03:15:40.478Z,15.7
2017-07-05T03:16:01.524Z,15.8
2017-07-05T03:16:21.808Z,15.7
2017-07-05T03:16:42.062Z,15.7
2017-07-05T03:17:02.387Z,15.8
2017-07-05T03:17:22.702Z,15.8
2017-07-05T03:17:43.023Z,15.8
2017-07-05T03:18:03.019Z,15.8
2017-07-05T03:18:23.321Z,15.7
2017-07-05T03:18:43.588Z,15.7
2017-07-05T03:19:03.867Z,15.7
2017-07-05T03:19:25.003Z,15.7
2017-07-05T03:19:45.853Z,15.7
2017-07-05T03:20:06.142Z,15.7
2017-07-05T03:20:27.008Z,15.7
2017-07-05T03:20:47.291Z,15.7
2017-07-05T03:21:07.580Z,15.8
2017-07-05T03:21:27.849Z,15.8
2017-07-05T03:21:48.904Z,15.8
2017-07-05T03:22:09.187Z,15.8
2017-07-05T03:22:29.507Z,15.8
2017-07-05T03:22:49.856Z,15.8
2017-07-05T03:23:10.128Z,15.9
2017-07-05T03:23:30.445Z,15.8
2017-07-05T03:23:50.813Z,15.8
2017-07-05T03:24:11.098Z,15.8
2017-07-05T03:24:31.387Z,15.8
2017-07-05T03:24:51.377Z,15.8
2017-07-05T03:25:12.993Z,15.8
2017-07-05T03:25:33.300Z,15.8
2017-07-05T03:25:54.565Z,15.9
2017-07-05T03:26:15.910Z,15.9
2017-07-05T03:26:35.952Z,15.8
2017-07-05T03:26:56.236Z,15.9
2017-07-05T03:27:16.526Z,15.9
2017-07-05T03:27:36.841Z,15.9
2017-07-05T03:27:57.108Z,15.9
2017-07-05T03:28:17.389Z,15.8
2017-07-05T03:28:37.707Z,15.7
2017-07-05T03:28:57.992Z,15.8
2017-07-05T03:29:18.272Z,15.8
2017-07-05T03:29:38.549Z,15.8
2017-07-05T03:29:58.812Z,15.8
2017-07-05T03:30:19.186Z,15.8
2017-07-05T03:30:40.394Z,15.9
2017-07-05T03:31:00.681Z,15.8
2017-07-05T03:31:20.669Z,15.9
2017-07-05T03:31:40.955Z,15.8
2017-07-05T03:32:01.252Z,15.8
2017-07-05T03:32:21.532Z,15.8
2017-07-05T03:32:41.894Z,15.9
2017-07-05T03:33:02.167Z,15.8
2017-07-05T03:33:24.220Z,15.9
2017-07-05T03:33:45.602Z,15.9
2017-07-05T03:34:05.967Z,15.9
2017-07-05T03:34:26.875Z,15.9
2017-07-05T03:34:48.032Z,15.9
2017-07-05T03:35:08.314Z,15.9
2017-07-05T03:35:29.498Z,15.8
2017-07-05T03:35:50.445Z,15.8
2017-07-05T03:36:10.757Z,15.9
2017-07-05T03:36:31.960Z,15.9
2017-07-05T03:36:52.233Z,15.9
2017-07-05T03:37:12.542Z,15.8
2017-07-05T03:37:33.433Z,15.9
2017-07-05T03:37:53.738Z,15.8
2017-07-05T03:38:14.027Z,15.8
2017-07-05T03:38:34.999Z,15.7
2017-07-05T03:38:55.408Z,15.7
2017-07-05T03:39:16.432Z,15.7
2017-07-05T03:39:36.699Z,15.7
2017-07-05T03:39:57.543Z,15.6
2017-07-05T03:40:17.838Z,15.7
2017-07-05T03:40:37.886Z,15.6
2017-07-05T03:40:58.186Z,15.6
2017-07-05T03:41:18.492Z,15.7
2017-07-05T03:41:38.583Z,15.7
2017-07-05T03:41:59.523Z,15.7
2017-07-05T03:42:20.584Z,15.6
2017-07-05T03:42:40.869Z,15.6
2017-07-05T03:43:01.170Z,15.6
2017-07-05T03:43:21.610Z,15.6
2017-07-05T03:43:41.983Z,15.6
2017-07-05T03:44:03.077Z,15.6
2017-07-05T03:44:24.383Z,15.6
2017-07-05T03:44:44.654Z,15.6
2017-07-05T03:45:04.979Z,15.6
2017-07-05T03:45:25.258Z,15.6
2017-07-05T03:45:45.525Z,15.6
2017-07-05T03:46:05.816Z,15.5
2017-07-05T03:46:26.102Z,15.6
2017-07-05T03:46:47.413Z,15.5
2017-07-05T03:47:08.443Z,15.5
2017-07-05T03:47:28.761Z,15.5
2017-07-05T03:47:49.038Z,15.6
2017-07-05T03:48:09.324Z,15.5
2017-07-05T03:48:29.692Z,15.6
2017-07-05T03:48:50.041Z,15.6
2017-07-05T03:49:11.024Z,15.5
2017-07-05T03:49:31.331Z,15.6
2017-07-05T03:49:51.668Z,15.6
2017-07-05T03:50:11.952Z,15.6
2017-07-05T03:50:32.233Z,15.7
2017-07-05T03:50:52.500Z,15.6
2017-07-05T03:51:12.771Z,15.6
2017-07-05T03:51:33.102Z,15.6
2017-07-05T03:51:53.384Z,15.6
2017-07-05T03:52:13.747Z,15.6
2017-07-05T03:52:34.015Z,15.5
2017-07-05T03:52:55.023Z,15.6
2017-07-05T03:53:15.357Z,15.6
2017-07-05T03:53:36.461Z,15.5
2017-07-05T03:53:56.723Z,15.6
2017-07-05T03:54:16.997Z,15.6
2017-07-05T03:54:37.260Z,15.6
2017-07-05T03:54:57.531Z,15.6
2017-07-05T03:55:17.826Z,15.6
2017-07-05T03:55:38.182Z,15.5
2017-07-05T03:55:58.497Z,15.7
2017-07-05T03:56:20.044Z,15.7
2017-07-05T03:56:40.315Z,15.7
2017-07-05T03:57:00.630Z,15.7
2017-07-05T03:57:20.960Z,15.7
2017-07-05T03:57:41.234Z,15.6
2017-07-05T03:58:01.510Z,15.7
2017-07-05T03:58:21.822Z,15.8
2017-07-05T03:58:42.084Z,15.7
2017-07-05T03:59:02.379Z,15.7
2017-07-05T03:59:22.651Z,15.7
2017-07-05T03:59:42.937Z,15.7
2017-07-05T04:00:04.050Z,15.7
2017-07-05T04:00:24.319Z,15.7
2017-07-05T04:00:44.619Z,15.7
2017-07-05T04:01:04.899Z,15.7
2017-07-05T04:01:25.195Z,15.7
2017-07-05T04:01:45.482Z,15.7
2017-07-05T04:02:06.538Z,15.8
2017-07-05T04:02:26.829Z,15.7
2017-07-05T04:02:47.117Z,15.7
2017-07-05T04:03:07.395Z,15.7
2017-07-05T04:03:27.686Z,15.7
2017-07-05T04:03:48.997Z,15.6
2017-07-05T04:04:09.913Z,15.7
2017-07-05T04:04:30.188Z,15.7
2017-07-05T04:04:50.461Z,15.5
2017-07-05T04:05:10.468Z,15.7
2017-07-05T04:05:30.792Z,15.6
2017-07-05T04:05:51.114Z,15.7
2017-07-05T04:06:11.938Z,15.6
2017-07-05T04:06:32.359Z,15.6
2017-07-05T04:06:52.582Z,15.5
2017-07-05T04:07:13.460Z,15.5
2017-07-05T04:07:35.053Z,15.6
2017-07-05T04:07:55.387Z,15.7
2017-07-05T04:08:16.460Z,15.5
2017-07-05T04:08:36.751Z,15.5
2017-07-05T04:08:57.069Z,15.5
2017-07-05T04:09:17.337Z,15.5
2017-07-05T04:09:37.658Z,15.6
2017-07-05T04:09:57.964Z,15.6
2017-07-05T04:10:18.375Z,15.6
2017-07-05T04:10:38.723Z,15.6
2017-07-05T04:10:58.986Z,15.6
2017-07-05T04:11:19.350Z,15.5
2017-07-05T04:11:39.642Z,15.5
2017-07-05T04:12:00.567Z,15.6
2017-07-05T04:12:20.835Z,15.7
2017-07-05T04:12:42.756Z,15.6
2017-07-05T04:13:03.185Z,15.6
2017-07-05T04:13:23.186Z,15.7
2017-07-05T04:13:43.483Z,15.7
2017-07-05T04:14:03.777Z,15.7
2017-07-05T04:14:24.097Z,15.6
2017-07-05T04:14:44.365Z,15.7
2017-07-05T04:15:04.729Z,15.7
2017-07-05T04:15:25.134Z,15.6
2017-07-05T04:15:46.523Z,15.7
2017-07-05T04:16:09.058Z,15.6
2017-07-05T04:16:29.345Z,15.6
2017-07-05T04:16:49.623Z,15.6
2017-07-05T04:17:09.906Z,15.7
2017-07-05T04:17:30.200Z,15.7
2017-07-05T04:17:51.025Z,15.7
2017-07-05T04:18:11.372Z,15.7
2017-07-05T04:18:31.635Z,15.7
2017-07-05T04:18:52.535Z,15.7
2017-07-05T04:19:12.832Z,15.7
2017-07-05T04:19:33.202Z,15.7
2017-07-05T04:19:53.495Z,15.7
2017-07-05T04:20:13.493Z,15.7
2017-07-05T04:20:33.772Z,15.7
2017-07-05T04:20:54.103Z,15.8
2017-07-05T04:21:14.436Z,15.7
2017-07-05T04:21:34.739Z,15.8
2017-07-05T04:21:55.068Z,15.8
2017-07-05T04:22:15.351Z,15.8
2017-07-05T04:22:35.628Z,15.9
2017-07-05T04:22:55.902Z,15.9
2017-07-05T04:23:17.090Z,15.9
2017-07-05T04:23:37.393Z,15.8
2017-07-05T04:23:57.707Z,15.9
2017-07-05T04:24:18.019Z,15.9
2017-07-05T04:24:38.350Z,15.9
2017-07-05T04:24:58.678Z,15.8
2017-07-05T04:25:19.039Z,15.8
2017-07-05T04:25:39.352Z,15.8
2017-07-05T04:25:59.668Z,15.9
2017-07-05T04:26:19.960Z,15.8
2017-07-05T04:26:41.045Z,15.8
2017-07-05T04:27:01.334Z,15.8
2017-07-05T04:27:21.661Z,15.9
2017-07-05T04:27:42.569Z,16
2017-07-05T04:28:03.569Z,15.9
2017-07-05T04:28:23.850Z,15.9
2017-07-05T04:28:44.940Z,15.8
2017-07-05T04:29:05.225Z,15.9
2017-07-05T04:29:25.504Z,15.9
2017-07-05T04:29:45.773Z,16
2017-07-05T04:30:06.096Z,16
2017-07-05T04:30:26.437Z,15.9
2017-07-05T04:30:46.731Z,16
2017-07-05T04:31:07.061Z,16
2017-07-05T04:31:27.334Z,15.9
2017-07-05T04:31:47.345Z,16
2017-07-05T04:32:07.637Z,16
2017-07-05T04:32:27.995Z,16
2017-07-05T04:32:48.319Z,16
2017-07-05T04:33:08.648Z,16
2017-07-05T04:33:28.912Z,16
2017-07-05T04:33:49.194Z,16.1
2017-07-05T04:34:09.487Z,16
2017-07-05T04:34:29.812Z,16.1
2017-07-05T04:34:50.103Z,16.1
2017-07-05T04:35:10.378Z,16.1
2017-07-05T04:35:30.712Z,16.1
2017-07-05T04:35:51.039Z,16.1
2017-07-05T04:36:11.349Z,16.2